createdAt,value
2019-01-15T00:01:53.204Z,76835.83
2019-01-15T00:04:24.706Z,76843.83
2019-01-15T00:06:50.608Z,76852.84
2019-01-15T00:09:16.861Z,76859.84
2019-01-15T00:11:42.771Z,76854.84
2019-01-15T00:14:08.652Z,76858.84
2019-01-15T00:16:34.597Z,76849.84
2019-01-15T00:19:00.507Z,76833.83
2019-01-15T00:21:26.403Z,76831.82
2019-01-15T00:23:52.928Z,76858.84
2019-01-15T00:26:19.192Z,76858.84
2019-01-15T00:28:45.134Z,76855.84
2019-01-15T00:31:11.045Z,76855.84
2019-01-15T00:33:37.149Z,76858.84
2019-01-15T00:36:03.059Z,76860.84
2019-01-15T00:38:29.077Z,76853.84
2019-01-15T00:40:55.025Z,76864.84
2019-01-15T00:43:20.931Z,76862.84
2019-01-15T00:45:47.197Z,76860.84
2019-01-15T00:48:13.466Z,76862.84
2019-01-15T00:50:39.361Z,76861.84
2019-01-15T00:53:05.270Z,76859.84
2019-01-15T00:55:31.173Z,76862.84
2019-01-15T00:57:57.069Z,76863.84
2019-01-15T01:00:25.838Z,76859.84
2019-01-15T01:02:51.752Z,76860.84
2019-01-15T01:05:17.758Z,76855.84
2019-01-15T01:07:43.695Z,76859.84
2019-01-15T01:10:10.581Z,76849.84
2019-01-15T01:12:36.528Z,76869.85
2019-01-15T01:15:03.732Z,76864.84
2019-01-15T01:17:29.641Z,76861.84
2019-01-15T01:19:55.650Z,76871.85
2019-01-15T01:22:24.304Z,76866.84
2019-01-15T01:24:50.260Z,76869.85
2019-01-15T01:27:16.148Z,76866.84
2019-01-15T01:29:42.058Z,76860.84
2019-01-15T01:32:07.961Z,76873.86
2019-01-15T01:34:33.950Z,76874.86
2019-01-15T01:36:59.854Z,76879.86
2019-01-15T01:39:25.736Z,76874.86
2019-01-15T01:41:51.645Z,76871.85
2019-01-15T01:44:17.607Z,76887.87
2019-01-15T01:46:43.501Z,76883.86
2019-01-15T01:49:09.487Z,76876.86
2019-01-15T01:51:35.424Z,76883.86
2019-01-15T01:54:01.326Z,76884.86
2019-01-15T01:56:27.238Z,76883.86
2019-01-15T01:58:53.139Z,76901.88
2019-01-15T02:01:19.039Z,76908.89
2019-01-15T02:03:44.939Z,76906.88
2019-01-15T02:06:10.840Z,76906.88
2019-01-15T02:08:36.751Z,76917.89
2019-01-15T02:11:02.646Z,76903.88
2019-01-15T02:13:28.956Z,76910.89
2019-01-15T02:15:54.852Z,76915.89
2019-01-15T02:18:20.741Z,76918.89
2019-01-15T02:20:46.789Z,76914.89
2019-01-15T02:23:12.677Z,76922.89
2019-01-15T02:25:38.661Z,76932.91
2019-01-15T02:28:04.969Z,76929.91
2019-01-15T02:30:34.089Z,76928.91
2019-01-15T02:32:59.987Z,76916.89
2019-01-15T02:35:25.876Z,76913.89
2019-01-15T02:37:51.795Z,76906.88
2019-01-15T02:40:17.681Z,76910.89
2019-01-15T02:42:46.896Z,76910.89
2019-01-15T02:45:12.463Z,76904.88
2019-01-15T02:47:38.796Z,76909.89
2019-01-15T02:50:09.235Z,76911.89
2019-01-15T02:52:38.201Z,76918.89
2019-01-15T02:55:05.597Z,76926.90
2019-01-15T02:57:34.496Z,76917.89
2019-01-15T03:00:00.393Z,76918.89
2019-01-15T03:02:26.295Z,76930.91
2019-01-15T03:04:55.348Z,76935.91
2019-01-15T03:07:24.259Z,76926.90
2019-01-15T03:09:50.187Z,76924.90
2019-01-15T03:12:16.115Z,76929.91
2019-01-15T03:14:45.056Z,76926.90
2019-01-15T03:17:13.946Z,76934.91
2019-01-15T03:19:42.899Z,76956.92
2019-01-15T03:22:11.832Z,76946.91
2019-01-15T03:24:40.802Z,76947.91
2019-01-15T03:27:09.823Z,76940.91
2019-01-15T03:29:38.952Z,76937.91
2019-01-15T03:32:07.915Z,76928.91
2019-01-15T03:34:37.106Z,76938.91
2019-01-15T03:37:06.057Z,76952.92
2019-01-15T03:39:31.954Z,76936.91
2019-01-15T03:42:00.868Z,76937.91
2019-01-15T03:44:26.765Z,76938.91
2019-01-15T03:46:55.799Z,76942.91
2019-01-15T03:49:24.818Z,76944.91
2019-01-15T03:51:54.155Z,76935.91
2019-01-15T03:54:23.232Z,76936.91
2019-01-15T03:56:55.155Z,76935.91
2019-01-15T03:59:24.090Z,76937.91
2019-01-15T04:01:50.469Z,76946.91
2019-01-15T04:04:19.555Z,76940.91
2019-01-15T04:06:48.463Z,76941.91
2019-01-15T04:09:17.949Z,76939.91
2019-01-15T04:11:46.852Z,76944.91
2019-01-15T04:14:12.749Z,76936.91
2019-01-15T04:16:38.660Z,76940.91
2019-01-15T04:19:07.719Z,76957.92
2019-01-15T04:21:36.674Z,76958.92
2019-01-15T04:24:02.619Z,76954.92
2019-01-15T04:26:28.518Z,76950.92
2019-01-15T04:28:54.411Z,76950.92
2019-01-15T04:31:20.302Z,76958.92
2019-01-15T04:33:49.247Z,76967.94
2019-01-15T04:36:18.317Z,76966.93
2019-01-15T04:38:44.231Z,76964.93
2019-01-15T04:41:10.176Z,76958.92
2019-01-15T04:43:36.074Z,76958.92
2019-01-15T04:46:01.982Z,76952.92
2019-01-15T04:48:27.869Z,76958.92
2019-01-15T04:50:53.787Z,76965.93
2019-01-15T04:53:23.436Z,76959.92
2019-01-15T04:55:49.336Z,76957.92
2019-01-15T04:58:18.024Z,76951.92
2019-01-15T05:00:47.072Z,76949.92
2019-01-15T05:03:16.089Z,76949.92
2019-01-15T05:05:45.233Z,76946.91
2019-01-15T05:08:14.160Z,76946.91
2019-01-15T05:10:43.295Z,76940.91
2019-01-15T05:13:12.531Z,76932.91
2019-01-15T05:15:41.246Z,76932.91
2019-01-15T05:18:07.151Z,76936.91
2019-01-15T05:20:33.072Z,76931.91
2019-01-15T05:22:59.336Z,76936.91
2019-01-15T05:25:25.224Z,76920.89
2019-01-15T05:27:51.170Z,76921.89
2019-01-15T05:30:18.083Z,76937.91
2019-01-15T05:32:43.963Z,76932.91
2019-01-15T05:35:09.873Z,76933.91
2019-01-15T05:37:35.771Z,76935.91
2019-01-15T05:40:01.666Z,76935.91
2019-01-15T05:42:27.655Z,76947.91
2019-01-15T05:44:55.457Z,76937.91
2019-01-15T05:47:23.422Z,76952.92
2019-01-15T05:49:50.776Z,76933.91
2019-01-15T05:52:16.849Z,76935.91
2019-01-15T05:54:42.754Z,76930.91
2019-01-15T05:57:08.648Z,76925.90
2019-01-15T05:59:34.560Z,76931.91
2019-01-15T06:02:00.455Z,76932.91
2019-01-15T06:04:26.358Z,76933.91
2019-01-15T06:06:55.110Z,76941.91
2019-01-15T06:09:23.988Z,76941.91
2019-01-15T06:11:56.198Z,76936.91
2019-01-15T06:14:22.093Z,76924.90
2019-01-15T06:16:51.393Z,76927.90
2019-01-15T06:19:17.335Z,76938.91
2019-01-15T06:21:43.313Z,76927.90
2019-01-15T06:24:09.586Z,76926.90
2019-01-15T06:26:35.531Z,76919.89
2019-01-15T06:29:04.738Z,76920.89
2019-01-15T06:31:30.627Z,76915.89
2019-01-15T06:33:56.557Z,76910.89
2019-01-15T06:36:25.221Z,76916.89
2019-01-15T06:38:53.888Z,76912.89
2019-01-15T06:41:20.246Z,76912.89
2019-01-15T06:43:49.994Z,76914.89
2019-01-15T06:46:13.853Z,76912.89
2019-01-15T06:48:39.762Z,76912.89
2019-01-15T06:51:05.667Z,76919.89
2019-01-15T06:53:31.563Z,76923.90
2019-01-15T06:55:57.495Z,76920.89
2019-01-15T06:58:26.181Z,76908.89
2019-01-15T07:00:58.086Z,76916.89
2019-01-15T07:03:26.096Z,76914.89
2019-01-15T07:05:53.985Z,76905.88
2019-01-15T07:08:26.368Z,76915.89
2019-01-15T07:10:55.174Z,76910.89
2019-01-15T07:13:24.153Z,76912.89
2019-01-15T07:15:51.949Z,76911.89
2019-01-15T07:18:20.644Z,76913.89
2019-01-15T07:20:49.552Z,76922.89
2019-01-15T07:23:18.473Z,76916.89
2019-01-15T07:25:47.399Z,76922.89
2019-01-15T07:28:13.341Z,76917.89
2019-01-15T07:30:40.959Z,76910.89
2019-01-15T07:33:07.269Z,76906.88
2019-01-15T07:35:33.181Z,76915.89
2019-01-15T07:37:59.119Z,76916.89
2019-01-15T07:40:25.012Z,76919.89
2019-01-15T07:42:50.959Z,76919.89
2019-01-15T07:45:16.853Z,76910.89
2019-01-15T07:47:42.758Z,76915.89
2019-01-15T07:50:10.564Z,76914.89
2019-01-15T07:52:36.463Z,76923.90
2019-01-15T07:55:02.768Z,76919.89
2019-01-15T07:57:28.667Z,76908.89
2019-01-15T07:59:54.565Z,76911.89
2019-01-15T08:02:20.675Z,76910.89
2019-01-15T08:04:46.677Z,76915.89
2019-01-15T08:07:12.582Z,76909.89
2019-01-15T08:09:41.439Z,76903.88
2019-01-15T08:12:10.449Z,76909.89
2019-01-15T08:14:39.244Z,76911.89
2019-01-15T08:17:05.144Z,76908.89
2019-01-15T08:19:31.051Z,76903.88
2019-01-15T08:21:59.725Z,76901.88
2019-01-15T08:24:25.602Z,76906.88
2019-01-15T08:26:51.563Z,76902.88
2019-01-15T08:29:17.468Z,76886.86
2019-01-15T08:31:43.369Z,76895.88
2019-01-15T08:34:09.310Z,76892.88
2019-01-15T08:36:35.214Z,76886.86
2019-01-15T08:39:01.119Z,76889.87
2019-01-15T08:41:27.009Z,76888.87
2019-01-15T08:43:55.938Z,76891.87
2019-01-15T08:46:21.879Z,76888.87
2019-01-15T08:48:47.978Z,76890.87
2019-01-15T08:51:14.336Z,76893.88
2019-01-15T08:53:40.679Z,76886.86
2019-01-15T08:56:06.974Z,76887.87
2019-01-15T08:58:33.245Z,76900.88
2019-01-15T09:00:59.541Z,76908.89
2019-01-15T09:03:25.451Z,76901.88
2019-01-15T09:05:51.348Z,76898.88
2019-01-15T09:08:17.247Z,76897.88
2019-01-15T09:10:46.342Z,76902.88
2019-01-15T09:13:12.281Z,76900.88
2019-01-15T09:15:38.211Z,76898.88
2019-01-15T09:18:07.264Z,76897.88
2019-01-15T09:20:33.202Z,76879.86
2019-01-15T09:22:59.136Z,76841.83
2019-01-15T09:25:25.038Z,76873.86
2019-01-15T09:27:53.983Z,76878.86
2019-01-15T09:30:20.584Z,76888.87
2019-01-15T09:32:50.046Z,76887.87
2019-01-15T09:35:19.027Z,76888.87
2019-01-15T09:37:46.425Z,76883.86
2019-01-15T09:40:13.634Z,76879.86
2019-01-15T09:42:42.270Z,76878.86
2019-01-15T09:45:09.777Z,76895.88
2019-01-15T09:47:40.480Z,76905.88
2019-01-15T09:50:11.127Z,76899.88
2019-01-15T09:52:37.106Z,76906.88
2019-01-15T09:55:03.998Z,76895.88
2019-01-15T09:57:29.974Z,76901.88
2019-01-15T09:59:56.062Z,76907.88
2019-01-15T10:02:21.961Z,76895.88
2019-01-15T10:04:50.639Z,76892.88
2019-01-15T10:07:16.537Z,76895.88
2019-01-15T10:09:45.463Z,76896.88
2019-01-15T10:12:14.581Z,76899.88
2019-01-15T10:14:43.486Z,76892.88
2019-01-15T10:17:09.397Z,76889.87
2019-01-15T10:19:38.315Z,76891.87
2019-01-15T10:22:04.614Z,76886.86
2019-01-15T10:24:33.651Z,76892.88
2019-01-15T10:27:04.478Z,76885.86
2019-01-15T10:29:33.841Z,76888.87
2019-01-15T10:32:10.969Z,76884.86
2019-01-15T10:34:38.372Z,76887.87
2019-01-15T10:37:04.280Z,76886.86
2019-01-15T10:39:30.216Z,76886.86
2019-01-15T10:41:56.109Z,76886.86
2019-01-15T10:44:23.133Z,76881.86
2019-01-15T10:46:49.012Z,76887.87
2019-01-15T10:49:14.917Z,76880.86
2019-01-15T10:51:40.827Z,76873.86
2019-01-15T10:54:06.816Z,76882.86
2019-01-15T10:56:32.718Z,76872.86
2019-01-15T10:58:58.629Z,76876.86
2019-01-15T11:01:24.529Z,76876.86
2019-01-15T11:03:50.433Z,76873.86
2019-01-15T11:06:16.332Z,76872.86
2019-01-15T11:08:42.248Z,76872.86
2019-01-15T11:11:08.122Z,76864.84
2019-01-15T11:13:34.041Z,76870.85
2019-01-15T11:16:00.007Z,76860.84
2019-01-15T11:18:25.909Z,76861.84
2019-01-15T11:20:54.573Z,76859.84
2019-01-15T11:23:20.489Z,76867.85
2019-01-15T11:25:46.385Z,76859.84
2019-01-15T11:28:12.283Z,76865.84
2019-01-15T11:30:38.186Z,76861.84
2019-01-15T11:33:07.221Z,76866.84
2019-01-15T11:35:33.170Z,76861.84
2019-01-15T11:37:59.079Z,76863.84
2019-01-15T11:40:24.985Z,76853.84
2019-01-15T11:42:54.017Z,76848.84
2019-01-15T11:45:20.013Z,76848.84
2019-01-15T11:47:45.959Z,76844.83
2019-01-15T11:50:18.769Z,76842.83
2019-01-15T11:52:44.670Z,76841.83
2019-01-15T11:55:13.362Z,76839.83
2019-01-15T11:57:39.263Z,76835.83
2019-01-15T12:00:17.980Z,76836.83
2019-01-15T12:02:48.777Z,76831.82
2019-01-15T12:05:31.713Z,76827.82
2019-01-15T12:08:05.418Z,76832.83
2019-01-15T12:10:33.223Z,76823.81
2019-01-15T12:13:16.303Z,76824.81
2019-01-15T12:15:47.109Z,76818.81
2019-01-15T12:18:15.076Z,76832.83
2019-01-15T12:20:45.508Z,76821.81
2019-01-15T12:23:13.549Z,76823.81
2019-01-15T12:25:47.311Z,76826.81
2019-01-15T12:28:30.026Z,76819.81
2019-01-15T12:31:06.758Z,76816.81
2019-01-15T12:33:40.630Z,76824.81
2019-01-15T12:36:17.567Z,76813.81
2019-01-15T12:39:01.810Z,76807.80
2019-01-15T12:41:46.066Z,76807.80
2019-01-15T12:44:30.625Z,76806.80
2019-01-15T12:47:01.439Z,76805.80
2019-01-15T12:49:29.559Z,76803.80
2019-01-15T12:52:03.263Z,76800.80
2019-01-15T12:54:31.056Z,76802.80
2019-01-15T12:57:19.209Z,76797.80
2019-01-15T13:00:00.439Z,76793.79
2019-01-15T13:02:28.560Z,76798.80
2019-01-15T13:04:59.565Z,76791.79
2019-01-15T13:07:48.541Z,76785.78
2019-01-15T13:10:28.493Z,76785.78
2019-01-15T13:13:02.191Z,76783.78
2019-01-15T13:15:34.842Z,76772.77
2019-01-15T13:18:02.778Z,76773.77
2019-01-15T13:20:33.780Z,76760.77
2019-01-15T13:23:04.208Z,76759.77
2019-01-15T13:25:50.019Z,76752.76
2019-01-15T13:28:20.489Z,76762.77
2019-01-15T13:30:54.036Z,76758.77
2019-01-15T13:33:21.841Z,76766.77
2019-01-15T13:35:55.518Z,76766.77
2019-01-15T13:38:29.258Z,76758.77
2019-01-15T13:41:15.140Z,76750.76
2019-01-15T13:44:01.030Z,76742.75
2019-01-15T13:46:31.489Z,76738.75
2019-01-15T13:49:09.139Z,76741.75
2019-01-15T13:51:36.952Z,76740.75
2019-01-15T13:54:10.884Z,76727.74
2019-01-15T13:56:38.688Z,76725.73
2019-01-15T13:59:24.462Z,76723.73
2019-01-15T14:01:58.155Z,76721.73
2019-01-15T14:04:26.285Z,76720.73
2019-01-15T14:06:54.101Z,76724.73
2019-01-15T14:09:44.927Z,76718.73
2019-01-15T14:12:28.036Z,76712.73
2019-01-15T14:15:02.190Z,76722.73
2019-01-15T14:17:32.733Z,76730.74
2019-01-15T14:20:00.969Z,76733.75
2019-01-15T14:22:29.147Z,76736.75
2019-01-15T14:24:59.576Z,76730.74
2019-01-15T14:27:27.437Z,76731.74
2019-01-15T14:30:01.178Z,76725.73
2019-01-15T14:32:28.994Z,76714.73
2019-01-15T14:35:08.990Z,76718.73
2019-01-15T14:37:42.579Z,76720.73
2019-01-15T14:40:11.784Z,76710.73
2019-01-15T14:42:56.375Z,76709.73
2019-01-15T14:45:24.168Z,76704.72
2019-01-15T14:48:08.921Z,76700.72
2019-01-15T14:50:36.707Z,76720.73
2019-01-15T14:53:21.769Z,76726.73
2019-01-15T14:55:58.491Z,76718.73
2019-01-15T14:58:29.441Z,76712.73
2019-01-15T15:01:00.181Z,76720.73
2019-01-15T15:03:31.262Z,76707.73
2019-01-15T15:06:16.124Z,76702.72
2019-01-15T15:09:00.331Z,76702.72
2019-01-15T15:11:31.436Z,76709.73
2019-01-15T15:13:59.227Z,76706.73
2019-01-15T15:16:27.024Z,76697.72
2019-01-15T15:19:00.655Z,76694.72
2019-01-15T15:21:31.300Z,76686.70
2019-01-15T15:24:05.018Z,76686.70
2019-01-15T15:26:48.095Z,76682.70
2019-01-15T15:29:15.893Z,76679.70
2019-01-15T15:31:50.135Z,76680.70
2019-01-15T15:34:23.956Z,76684.70
2019-01-15T15:36:57.694Z,76677.70
2019-01-15T15:39:25.492Z,76678.70
2019-01-15T15:42:05.277Z,76679.70
2019-01-15T15:44:49.810Z,76664.69
2019-01-15T15:47:24.390Z,76670.70
2019-01-15T15:49:54.871Z,76669.70
2019-01-15T15:52:37.829Z,76659.69
2019-01-15T15:55:13.802Z,76665.69
2019-01-15T15:57:59.741Z,76658.69
2019-01-15T16:00:48.448Z,76651.69
2019-01-15T16:03:19.467Z,76665.69
2019-01-15T16:05:49.950Z,76655.69
2019-01-15T16:08:23.455Z,76661.69
2019-01-15T16:11:07.726Z,76653.69
2019-01-15T16:13:35.558Z,76659.69
2019-01-15T16:16:19.047Z,76643.67
2019-01-15T16:19:00.019Z,76646.68
2019-01-15T16:21:33.722Z,76650.69
2019-01-15T16:24:04.215Z,76647.68
2019-01-15T16:26:33.482Z,76640.67
2019-01-15T16:29:04.381Z,76640.67
2019-01-15T16:31:48.873Z,76643.67
2019-01-15T16:34:28.559Z,76638.67
2019-01-15T16:37:08.527Z,76632.67
2019-01-15T16:39:39.435Z,76634.67
2019-01-15T16:42:19.030Z,76622.66
2019-01-15T16:45:29.631Z,76623.66
2019-01-15T16:47:26.170Z,76628.67
2019-01-15T16:49:56.811Z,76628.67
2019-01-15T16:52:41.418Z,76628.67
2019-01-15T16:55:25.803Z,76624.66
2019-01-15T16:57:53.900Z,76624.66
2019-01-15T17:00:21.715Z,76618.66
2019-01-15T17:03:06.267Z,76618.66
2019-01-15T17:05:36.756Z,76628.67
2019-01-15T17:08:07.297Z,76610.66
2019-01-15T17:10:47.632Z,76614.66
2019-01-15T17:13:18.057Z,76608.66
2019-01-15T17:16:01.119Z,76599.64
2019-01-15T17:18:29.270Z,76609.66
2019-01-15T17:20:57.498Z,76603.64
2019-01-15T17:23:40.922Z,76606.65
2019-01-15T17:26:08.895Z,76602.64
2019-01-15T17:28:53.465Z,76592.64
2019-01-15T17:31:24.301Z,76599.64
2019-01-15T17:33:58.186Z,76601.64
2019-01-15T17:36:28.668Z,76596.64
2019-01-15T17:39:19.816Z,76607.66
2019-01-15T17:41:46.002Z,76598.64
2019-01-15T17:44:19.850Z,76600.64
2019-01-15T17:49:56.164Z,76593.64
2019-01-15T17:52:33.175Z,76592.64
2019-01-15T17:55:04.059Z,76592.64
2019-01-15T17:57:31.891Z,76599.64
2019-01-15T18:00:18.074Z,76585.63
2019-01-15T18:02:52.192Z,76593.64
2019-01-15T18:05:38.888Z,76590.64
2019-01-15T18:08:09.720Z,76598.64
2019-01-15T18:10:51.087Z,76594.64
2019-01-15T18:16:26.551Z,76598.64
2019-01-15T18:19:04.042Z,76597.64
2019-01-15T18:21:48.820Z,76596.64
2019-01-15T18:24:28.556Z,76590.64
2019-01-15T18:27:14.703Z,76594.64
2019-01-15T18:30:02.754Z,76581.63
2019-01-15T18:32:47.415Z,76583.63
2019-01-15T18:35:25.501Z,76582.63
2019-01-15T18:38:11.357Z,76574.63
2019-01-15T18:40:53.756Z,76577.63
2019-01-15T18:46:55.994Z,76586.63
2019-01-15T18:49:34.422Z,76586.63
2019-01-15T18:52:20.689Z,76577.63
2019-01-15T18:54:51.375Z,76577.63
2019-01-15T18:57:31.055Z,76582.63
2019-01-15T19:00:11.404Z,76569.63
2019-01-15T19:02:42.066Z,76580.63
2019-01-15T19:05:21.757Z,76586.63
2019-01-15T19:07:53.484Z,76588.64
2019-01-15T19:10:21.279Z,76583.63
2019-01-15T19:13:05.776Z,76602.64
2019-01-15T19:15:33.985Z,76590.64
2019-01-15T19:18:01.977Z,76597.64
2019-01-15T19:20:48.018Z,76594.64
2019-01-15T19:23:15.876Z,76596.64
2019-01-15T19:25:43.772Z,76599.64
2019-01-15T19:28:28.378Z,76598.64
2019-01-15T19:31:09.047Z,76606.65
2019-01-15T19:33:46.103Z,76605.65
2019-01-15T19:36:30.660Z,76610.66
2019-01-15T19:39:10.409Z,76611.66
2019-01-15T19:41:38.188Z,76605.65
2019-01-15T19:44:20.944Z,76598.64
2019-01-15T19:46:49.091Z,76616.66
2019-01-15T19:49:16.901Z,76609.66
2019-01-15T19:51:47.628Z,76610.66
2019-01-15T19:54:21.265Z,76616.66
2019-01-15T19:57:04.924Z,76608.66
2019-01-15T19:59:42.200Z,76623.66
2019-01-15T20:02:10.442Z,76614.66
2019-01-15T20:04:41.071Z,76614.66
2019-01-15T20:07:14.602Z,76609.66
2019-01-15T20:09:42.615Z,76613.66
2019-01-15T20:12:27.608Z,76626.66
2019-01-15T20:14:58.443Z,76620.66
2019-01-15T20:17:42.952Z,76612.66
2019-01-15T20:20:13.869Z,76626.66
2019-01-15T20:22:47.654Z,76621.66
2019-01-15T20:25:24.742Z,76624.66
2019-01-15T20:28:09.893Z,76623.66
2019-01-15T20:30:43.926Z,76628.67
2019-01-15T20:33:14.351Z,76632.67
2019-01-15T20:35:45.222Z,76633.67
2019-01-15T20:38:16.058Z,76634.67
2019-01-15T20:40:43.858Z,76642.67
2019-01-15T20:43:17.631Z,76632.67
2019-01-15T20:45:57.915Z,76637.67
2019-01-15T20:48:37.705Z,76635.67
2019-01-15T20:51:06.187Z,76645.68
2019-01-15T20:53:40.141Z,76638.67
2019-01-15T20:56:10.554Z,76632.67
2019-01-15T20:58:47.360Z,76646.68
2019-01-15T21:01:21.285Z,76632.67
2019-01-15T21:04:06.315Z,76636.67
2019-01-15T21:06:46.002Z,76636.67
2019-01-15T21:09:13.811Z,76645.68
2019-01-15T21:11:58.090Z,76646.68
2019-01-15T21:14:37.776Z,76644.67
2019-01-15T21:17:08.419Z,76653.69
2019-01-15T21:19:42.410Z,76646.68
2019-01-15T21:22:10.396Z,76657.69
2019-01-15T21:24:47.384Z,76656.69
2019-01-15T21:27:21.100Z,76653.69
2019-01-15T21:29:48.969Z,76654.69
2019-01-15T21:32:26.555Z,76660.69
2019-01-15T21:35:11.255Z,76661.69
2019-01-15T21:37:55.659Z,76661.69
2019-01-15T21:40:23.483Z,76671.70
2019-01-15T21:43:00.071Z,76667.70
2019-01-15T21:45:28.495Z,76670.70
2019-01-15T21:48:08.308Z,76669.70
2019-01-15T21:50:45.279Z,76668.70
2019-01-15T21:53:31.373Z,76672.70
2019-01-15T21:56:05.089Z,76670.70
2019-01-15T21:58:38.825Z,76672.70
2019-01-15T22:01:06.623Z,76676.70
2019-01-15T22:03:51.316Z,76671.70
2019-01-15T22:06:27.845Z,76668.70
2019-01-15T22:09:11.379Z,76672.70
2019-01-15T22:11:54.134Z,76680.70
2019-01-15T22:14:25.404Z,76675.70
2019-01-15T22:16:53.172Z,76674.70
2019-01-15T22:19:21.326Z,76667.70
2019-01-15T22:21:51.760Z,76675.70
2019-01-15T22:24:23.874Z,76676.70
2019-01-15T22:26:54.668Z,76676.70
2019-01-15T22:29:25.361Z,76676.70
2019-01-15T22:32:08.303Z,76670.70
2019-01-15T22:34:56.481Z,76677.70
2019-01-15T22:37:24.301Z,76678.70
2019-01-15T22:40:07.376Z,76668.70
2019-01-15T22:42:38.358Z,76669.70
2019-01-15T22:45:24.794Z,76671.70
2019-01-15T22:47:55.262Z,76673.70
2019-01-15T22:50:23.111Z,76669.70
2019-01-15T22:52:50.920Z,76667.70
2019-01-15T22:55:30.893Z,76667.70
2019-01-15T22:57:58.708Z,76670.70
2019-01-15T23:00:48.018Z,76665.69
2019-01-15T23:03:15.864Z,76682.70
2019-01-15T23:06:04.715Z,76684.70
2019-01-15T23:08:32.562Z,76676.70
2019-01-15T23:11:20.044Z,76676.70
2019-01-15T23:13:53.847Z,76674.70
2019-01-15T23:16:33.921Z,76674.70
2019-01-15T23:19:07.645Z,76670.70
2019-01-15T23:21:56.563Z,76664.69
2019-01-15T23:24:27.149Z,76668.70
2019-01-15T23:27:11.614Z,76667.70
2019-01-15T23:29:42.315Z,76665.69
2019-01-15T23:32:10.165Z,76669.70
2019-01-15T23:34:38.373Z,76669.70
2019-01-15T23:37:09.160Z,76675.70
2019-01-15T23:39:43.317Z,76672.70
2019-01-15T23:42:23.090Z,76678.70
2019-01-15T23:44:50.936Z,76680.70
2019-01-15T23:47:18.731Z,76670.70
2019-01-15T23:49:46.594Z,76660.69
2019-01-15T23:52:26.995Z,76673.70
2019-01-15T23:55:09.789Z,76670.70
2019-01-15T23:57:46.579Z,76671.70
